sensor_id;sensor_type;location;lat;lon;timestamp;P1;durP1;ratioP1;P2;durP2;ratioP2
17864;SDS011;9058;52.018;4.202;2023-02-28T00:01:44;6.10;;;3.37;;
17864;SDS011;9058;52.018;4.202;2023-02-28T00:04:17;4.77;;;3.17;;
17864;SDS011;9058;52.018;4.202;2023-02-28T00:06:44;6.67;;;3.40;;
17864;SDS011;9058;52.018;4.202;2023-02-28T00:09:20;5.97;;;3.43;;
17864;SDS011;9058;52.018;4.202;2023-02-28T00:11:47;9.40;;;4.00;;
17864;SDS011;9058;52.018;4.202;2023-02-28T00:14:13;5.80;;;3.57;;
17864;SDS011;9058;52.018;4.202;2023-02-28T00:16:40;6.63;;;3.60;;
17864;SDS011;9058;52.018;4.202;2023-02-28T00:19:08;3.50;;;3.10;;
17864;SDS011;9058;52.018;4.202;2023-02-28T00:21:35;7.10;;;3.17;;
17864;SDS011;9058;52.018;4.202;2023-02-28T00:24:01;6.20;;;3.07;;
17864;SDS011;9058;52.018;4.202;2023-02-28T00:26:28;7.13;;;3.30;;
17864;SDS011;9058;52.018;4.202;2023-02-28T00:28:55;6.17;;;3.73;;
17864;SDS011;9058;52.018;4.202;2023-02-28T00:31:21;5.67;;;3.23;;
17864;SDS011;9058;52.018;4.202;2023-02-28T00:33:48;7.33;;;3.03;;
17864;SDS011;9058;52.018;4.202;2023-02-28T00:36:17;4.43;;;3.10;;
17864;SDS011;9058;52.018;4.202;2023-02-28T00:38:44;3.80;;;2.70;;
17864;SDS011;9058;52.018;4.202;2023-02-28T00:41:10;7.17;;;2.80;;
17864;SDS011;9058;52.018;4.202;2023-02-28T00:43:38;4.10;;;3.07;;
17864;SDS011;9058;52.018;4.202;2023-02-28T00:46:05;3.63;;;2.63;;
17864;SDS011;9058;52.018;4.202;2023-02-28T00:48:31;6.83;;;3.07;;
17864;SDS011;9058;52.018;4.202;2023-02-28T00:50:59;5.63;;;2.90;;
17864;SDS011;9058;52.018;4.202;2023-02-28T00:53:27;4.30;;;3.07;;
17864;SDS011;9058;52.018;4.202;2023-02-28T00:55:53;4.47;;;2.80;;
17864;SDS011;9058;52.018;4.202;2023-02-28T00:58:20;7.20;;;3.03;;
17864;SDS011;9058;52.018;4.202;2023-02-28T01:00:46;4.43;;;3.07;;
17864;SDS011;9058;52.018;4.202;2023-02-28T01:03:13;5.03;;;2.97;;
17864;SDS011;9058;52.018;4.202;2023-02-28T01:05:40;2.50;;;2.23;;
17864;SDS011;9058;52.018;4.202;2023-02-28T01:08:07;6.23;;;3.17;;
17864;SDS011;9058;52.018;4.202;2023-02-28T01:10:34;4.57;;;2.80;;
17864;SDS011;9058;52.018;4.202;2023-02-28T01:13:02;5.93;;;2.80;;
17864;SDS011;9058;52.018;4.202;2023-02-28T01:15:28;5.57;;;3.13;;
17864;SDS011;9058;52.018;4.202;2023-02-28T01:17:57;5.00;;;2.60;;
17864;SDS011;9058;52.018;4.202;2023-02-28T01:20:23;7.78;;;3.17;;
17864;SDS011;9058;52.018;4.202;2023-02-28T01:22:50;4.50;;;2.67;;
17864;SDS011;9058;52.018;4.202;2023-02-28T01:25:18;5.03;;;3.17;;
17864;SDS011;9058;52.018;4.202;2023-02-28T01:27:47;5.27;;;2.80;;
17864;SDS011;9058;52.018;4.202;2023-02-28T01:30:14;3.10;;;2.33;;
17864;SDS011;9058;52.018;4.202;2023-02-28T01:32:41;5.93;;;3.43;;
17864;SDS011;9058;52.018;4.202;2023-02-28T01:35:08;6.43;;;3.07;;
17864;SDS011;9058;52.018;4.202;2023-02-28T01:37:34;5.40;;;2.80;;
17864;SDS011;9058;52.018;4.202;2023-02-28T01:40:01;5.77;;;3.10;;
17864;SDS011;9058;52.018;4.202;2023-02-28T01:42:28;5.53;;;2.93;;
17864;SDS011;9058;52.018;4.202;2023-02-28T01:44:59;7.40;;;3.40;;
17864;SDS011;9058;52.018;4.202;2023-02-28T01:47:27;4.53;;;2.80;;
17864;SDS011;9058;52.018;4.202;2023-02-28T01:49:54;7.63;;;2.80;;
17864;SDS011;9058;52.018;4.202;2023-02-28T01:52:21;4.80;;;2.50;;
17864;SDS011;9058;52.018;4.202;2023-02-28T01:54:50;4.13;;;3.13;;
17864;SDS011;9058;52.018;4.202;2023-02-28T01:57:18;4.53;;;3.00;;
17864;SDS011;9058;52.018;4.202;2023-02-28T01:59:46;6.87;;;3.10;;
17864;SDS011;9058;52.018;4.202;2023-02-28T02:02:18;5.30;;;3.03;;
17864;SDS011;9058;52.018;4.202;2023-02-28T02:04:46;6.93;;;3.37;;
17864;SDS011;9058;52.018;4.202;2023-02-28T02:07:16;6.40;;;3.10;;
17864;SDS011;9058;52.018;4.202;2023-02-28T02:09:43;5.27;;;3.47;;
17864;SDS011;9058;52.018;4.202;2023-02-28T02:12:12;5.47;;;3.23;;
17864;SDS011;9058;52.018;4.202;2023-02-28T02:14:43;4.80;;;3.30;;
17864;SDS011;9058;52.018;4.202;2023-02-28T02:17:15;5.32;;;3.35;;
17864;SDS011;9058;52.018;4.202;2023-02-28T02:19:53;4.70;;;3.20;;
17864;SDS011;9058;52.018;4.202;2023-02-28T02:22:37;5.67;;;3.60;;
17864;SDS011;9058;52.018;4.202;2023-02-28T02:25:10;7.00;;;3.47;;
17864;SDS011;9058;52.018;4.202;2023-02-28T02:27:39;7.43;;;3.90;;
17864;SDS011;9058;52.018;4.202;2023-02-28T02:30:20;6.90;;;3.87;;
17864;SDS011;9058;52.018;4.202;2023-02-28T02:33:02;6.67;;;3.73;;
17864;SDS011;9058;52.018;4.202;2023-02-28T02:35:31;5.87;;;4.00;;
17864;SDS011;9058;52.018;4.202;2023-02-28T02:38:03;10.63;;;4.63;;
17864;SDS011;9058;52.018;4.202;2023-02-28T02:40:34;9.13;;;3.90;;
17864;SDS011;9058;52.018;4.202;2023-02-28T02:43:03;7.40;;;4.57;;
17864;SDS011;9058;52.018;4.202;2023-02-28T02:45:33;6.47;;;4.03;;
17864;SDS011;9058;52.018;4.202;2023-02-28T02:48:02;9.17;;;3.80;;
17864;SDS011;9058;52.018;4.202;2023-02-28T02:50:31;5.70;;;3.53;;
17864;SDS011;9058;52.018;4.202;2023-02-28T02:53:00;6.37;;;3.93;;
17864;SDS011;9058;52.018;4.202;2023-02-28T02:55:27;6.87;;;3.87;;
17864;SDS011;9058;52.018;4.202;2023-02-28T02:57:54;8.98;;;3.67;;
17864;SDS011;9058;52.018;4.202;2023-02-28T03:00:26;6.77;;;3.73;;
17864;SDS011;9058;52.018;4.202;2023-02-28T03:02:53;5.10;;;3.70;;
17864;SDS011;9058;52.018;4.202;2023-02-28T03:05:21;8.55;;;3.83;;
17864;SDS011;9058;52.018;4.202;2023-02-28T03:07:52;6.57;;;4.00;;
17864;SDS011;9058;52.018;4.202;2023-02-28T03:10:27;4.57;;;3.90;;
17864;SDS011;9058;52.018;4.202;2023-02-28T03:12:56;5.90;;;4.00;;
17864;SDS011;9058;52.018;4.202;2023-02-28T03:15:29;6.73;;;3.80;;
17864;SDS011;9058;52.018;4.202;2023-02-28T03:18:01;5.23;;;3.63;;
17864;SDS011;9058;52.018;4.202;2023-02-28T03:20:34;8.95;;;4.05;;
17864;SDS011;9058;52.018;4.202;2023-02-28T03:23:05;6.70;;;4.27;;
17864;SDS011;9058;52.018;4.202;2023-02-28T03:25:38;8.77;;;4.37;;
17864;SDS011;9058;52.018;4.202;2023-02-28T03:28:08;6.50;;;4.20;;
17864;SDS011;9058;52.018;4.202;2023-02-28T03:30:39;6.85;;;4.18;;
17864;SDS011;9058;52.018;4.202;2023-02-28T03:33:08;6.72;;;4.30;;
17864;SDS011;9058;52.018;4.202;2023-02-28T03:35:36;9.52;;;4.28;;
17864;SDS011;9058;52.018;4.202;2023-02-28T03:38:08;8.63;;;4.43;;
17864;SDS011;9058;52.018;4.202;2023-02-28T03:40:39;5.63;;;4.43;;
17864;SDS011;9058;52.018;4.202;2023-02-28T03:43:09;7.55;;;4.18;;
17864;SDS011;9058;52.018;4.202;2023-02-28T03:45:37;7.83;;;4.70;;
17864;SDS011;9058;52.018;4.202;2023-02-28T03:48:07;7.05;;;4.82;;
17864;SDS011;9058;52.018;4.202;2023-02-28T03:50:37;6.20;;;4.15;;
17864;SDS011;9058;52.018;4.202;2023-02-28T03:53:06;8.63;;;4.20;;
17864;SDS011;9058;52.018;4.202;2023-02-28T03:55:37;7.07;;;4.90;;
17864;SDS011;9058;52.018;4.202;2023-02-28T03:58:05;6.57;;;4.33;;
17864;SDS011;9058;52.018;4.202;2023-02-28T04:00:35;8.37;;;4.47;;
17864;SDS011;9058;52.018;4.202;2023-02-28T04:03:02;7.10;;;5.00;;
17864;SDS011;9058;52.018;4.202;2023-02-28T04:05:29;7.63;;;4.40;;
17864;SDS011;9058;52.018;4.202;2023-02-28T04:08:03;5.80;;;4.45;;
17864;SDS011;9058;52.018;4.202;2023-02-28T04:10:31;4.87;;;4.27;;
17864;SDS011;9058;52.018;4.202;2023-02-28T04:12:58;8.10;;;5.10;;
17864;SDS011;9058;52.018;4.202;2023-02-28T04:15:24;7.55;;;4.22;;
17864;SDS011;9058;52.018;4.202;2023-02-28T04:17:52;8.40;;;5.30;;
17864;SDS011;9058;52.018;4.202;2023-02-28T04:20:19;8.27;;;4.75;;
17864;SDS011;9058;52.018;4.202;2023-02-28T04:22:45;8.00;;;5.00;;
17864;SDS011;9058;52.018;4.202;2023-02-28T04:25:12;4.93;;;4.37;;
17864;SDS011;9058;52.018;4.202;2023-02-28T04:27:40;8.88;;;5.15;;
17864;SDS011;9058;52.018;4.202;2023-02-28T04:30:09;8.45;;;4.93;;
17864;SDS011;9058;52.018;4.202;2023-02-28T04:32:36;6.10;;;4.93;;
17864;SDS011;9058;52.018;4.202;2023-02-28T04:35:03;10.18;;;5.53;;
17864;SDS011;9058;52.018;4.202;2023-02-28T04:37:30;6.88;;;5.05;;
17864;SDS011;9058;52.018;4.202;2023-02-28T04:39:59;6.32;;;5.05;;
17864;SDS011;9058;52.018;4.202;2023-02-28T04:42:26;7.28;;;4.95;;
17864;SDS011;9058;52.018;4.202;2023-02-28T04:45:02;6.93;;;5.13;;
17864;SDS011;9058;52.018;4.202;2023-02-28T04:47:28;7.57;;;5.03;;
17864;SDS011;9058;52.018;4.202;2023-02-28T04:49:55;8.60;;;5.10;;
17864;SDS011;9058;52.018;4.202;2023-02-28T04:52:22;7.43;;;5.38;;
17864;SDS011;9058;52.018;4.202;2023-02-28T04:54:48;7.97;;;5.10;;
17864;SDS011;9058;52.018;4.202;2023-02-28T04:57:15;9.65;;;5.90;;
17864;SDS011;9058;52.018;4.202;2023-02-28T04:59:41;8.10;;;5.13;;
17864;SDS011;9058;52.018;4.202;2023-02-28T05:02:09;9.65;;;6.07;;
17864;SDS011;9058;52.018;4.202;2023-02-28T05:04:36;8.00;;;5.82;;
17864;SDS011;9058;52.018;4.202;2023-02-28T05:07:03;9.93;;;5.97;;
17864;SDS011;9058;52.018;4.202;2023-02-28T05:09:29;10.07;;;6.68;;
17864;SDS011;9058;52.018;4.202;2023-02-28T05:11:58;8.18;;;6.45;;
17864;SDS011;9058;52.018;4.202;2023-02-28T05:14:25;9.77;;;5.78;;
17864;SDS011;9058;52.018;4.202;2023-02-28T05:16:51;12.70;;;6.13;;
17864;SDS011;9058;52.018;4.202;2023-02-28T05:19:19;11.03;;;6.70;;
17864;SDS011;9058;52.018;4.202;2023-02-28T05:21:49;9.15;;;6.22;;
17864;SDS011;9058;52.018;4.202;2023-02-28T05:24:16;7.80;;;5.37;;
17864;SDS011;9058;52.018;4.202;2023-02-28T05:26:48;8.17;;;5.80;;
17864;SDS011;9058;52.018;4.202;2023-02-28T05:29:16;7.60;;;5.67;;
17864;SDS011;9058;52.018;4.202;2023-02-28T05:31:42;7.37;;;5.53;;
17864;SDS011;9058;52.018;4.202;2023-02-28T05:34:09;6.77;;;5.57;;
17864;SDS011;9058;52.018;4.202;2023-02-28T05:36:39;8.57;;;5.30;;
17864;SDS011;9058;52.018;4.202;2023-02-28T05:39:05;11.17;;;6.10;;
17864;SDS011;9058;52.018;4.202;2023-02-28T05:41:38;7.50;;;5.73;;
17864;SDS011;9058;52.018;4.202;2023-02-28T05:44:04;7.70;;;5.53;;
17864;SDS011;9058;52.018;4.202;2023-02-28T05:46:31;6.60;;;5.30;;
17864;SDS011;9058;52.018;4.202;2023-02-28T05:48:58;9.32;;;5.90;;
17864;SDS011;9058;52.018;4.202;2023-02-28T05:51:25;7.73;;;6.20;;
17864;SDS011;9058;52.018;4.202;2023-02-28T05:53:53;11.27;;;6.43;;
17864;SDS011;9058;52.018;4.202;2023-02-28T05:56:20;8.50;;;6.10;;
17864;SDS011;9058;52.018;4.202;2023-02-28T05:58:47;10.48;;;6.03;;
17864;SDS011;9058;52.018;4.202;2023-02-28T06:01:20;13.57;;;6.80;;
17864;SDS011;9058;52.018;4.202;2023-02-28T06:03:47;8.48;;;6.97;;
17864;SDS011;9058;52.018;4.202;2023-02-28T06:06:14;10.90;;;7.07;;
17864;SDS011;9058;52.018;4.202;2023-02-28T06:08:41;10.23;;;7.60;;
17864;SDS011;9058;52.018;4.202;2023-02-28T06:11:11;10.00;;;7.72;;
17864;SDS011;9058;52.018;4.202;2023-02-28T06:13:38;10.07;;;7.90;;
17864;SDS011;9058;52.018;4.202;2023-02-28T06:16:05;11.33;;;7.83;;
17864;SDS011;9058;52.018;4.202;2023-02-28T06:18:32;9.10;;;7.87;;
17864;SDS011;9058;52.018;4.202;2023-02-28T06:20:58;8.47;;;6.87;;
17864;SDS011;9058;52.018;4.202;2023-02-28T06:23:25;10.57;;;7.83;;
17864;SDS011;9058;52.018;4.202;2023-02-28T06:25:52;9.93;;;8.00;;
17864;SDS011;9058;52.018;4.202;2023-02-28T06:28:25;11.90;;;9.13;;
17864;SDS011;9058;52.018;4.202;2023-02-28T06:30:52;10.47;;;7.77;;
17864;SDS011;9058;52.018;4.202;2023-02-28T06:33:19;10.20;;;7.70;;
17864;SDS011;9058;52.018;4.202;2023-02-28T06:35:46;10.57;;;7.90;;
17864;SDS011;9058;52.018;4.202;2023-02-28T06:38:13;13.80;;;8.60;;
17864;SDS011;9058;52.018;4.202;2023-02-28T06:40:40;11.27;;;8.20;;
17864;SDS011;9058;52.018;4.202;2023-02-28T06:43:06;12.97;;;8.70;;
17864;SDS011;9058;52.018;4.202;2023-02-28T06:45:34;12.50;;;8.00;;
17864;SDS011;9058;52.018;4.202;2023-02-28T06:48:01;11.73;;;8.27;;
17864;SDS011;9058;52.018;4.202;2023-02-28T06:50:27;11.67;;;7.60;;
17864;SDS011;9058;52.018;4.202;2023-02-28T06:52:56;10.32;;;7.88;;
17864;SDS011;9058;52.018;4.202;2023-02-28T06:55:22;10.03;;;8.33;;
17864;SDS011;9058;52.018;4.202;2023-02-28T06:57:48;12.63;;;8.40;;
17864;SDS011;9058;52.018;4.202;2023-02-28T07:00:16;12.60;;;8.63;;
17864;SDS011;9058;52.018;4.202;2023-02-28T07:02:43;10.67;;;8.57;;
17864;SDS011;9058;52.018;4.202;2023-02-28T07:05:10;11.07;;;8.00;;
17864;SDS011;9058;52.018;4.202;2023-02-28T07:07:36;11.03;;;8.20;;
17864;SDS011;9058;52.018;4.202;2023-02-28T07:10:05;12.53;;;9.23;;
17864;SDS011;9058;52.018;4.202;2023-02-28T07:12:32;12.83;;;7.97;;
17864;SDS011;9058;52.018;4.202;2023-02-28T07:14:58;10.50;;;8.33;;
17864;SDS011;9058;52.018;4.202;2023-02-28T07:17:25;9.93;;;7.80;;
17864;SDS011;9058;52.018;4.202;2023-02-28T07:19:52;10.70;;;8.13;;
17864;SDS011;9058;52.018;4.202;2023-02-28T07:22:19;12.93;;;8.40;;
17864;SDS011;9058;52.018;4.202;2023-02-28T07:24:45;10.77;;;7.70;;
17864;SDS011;9058;52.018;4.202;2023-02-28T07:27:11;11.70;;;8.07;;
17864;SDS011;9058;52.018;4.202;2023-02-28T07:29:59;10.00;;;8.37;;
17864;SDS011;9058;52.018;4.202;2023-02-28T07:32:28;12.67;;;9.47;;
17864;SDS011;9058;52.018;4.202;2023-02-28T07:34:56;11.90;;;8.73;;
17864;SDS011;9058;52.018;4.202;2023-02-28T07:37:22;8.77;;;7.30;;
17864;SDS011;9058;52.018;4.202;2023-02-28T07:39:49;10.53;;;8.10;;
17864;SDS011;9058;52.018;4.202;2023-02-28T07:42:16;10.80;;;7.03;;
17864;SDS011;9058;52.018;4.202;2023-02-28T07:44:43;9.80;;;6.83;;
17864;SDS011;9058;52.018;4.202;2023-02-28T07:47:10;8.53;;;6.80;;
17864;SDS011;9058;52.018;4.202;2023-02-28T07:49:36;10.73;;;6.93;;
17864;SDS011;9058;52.018;4.202;2023-02-28T07:52:06;9.27;;;7.27;;
17864;SDS011;9058;52.018;4.202;2023-02-28T07:54:32;9.50;;;6.83;;
17864;SDS011;9058;52.018;4.202;2023-02-28T07:56:59;8.87;;;6.47;;
17864;SDS011;9058;52.018;4.202;2023-02-28T07:59:25;7.03;;;6.13;;
17864;SDS011;9058;52.018;4.202;2023-02-28T08:01:51;11.20;;;6.03;;
17864;SDS011;9058;52.018;4.202;2023-02-28T08:04:19;7.60;;;5.53;;
17864;SDS011;9058;52.018;4.202;2023-02-28T08:06:45;6.93;;;3.87;;
17864;SDS011;9058;52.018;4.202;2023-02-28T08:09:13;6.70;;;4.57;;
17864;SDS011;9058;52.018;4.202;2023-02-28T08:11:40;5.17;;;4.60;;
17864;SDS011;9058;52.018;4.202;2023-02-28T08:14:06;9.90;;;6.27;;
17864;SDS011;9058;52.018;4.202;2023-02-28T08:16:33;6.43;;;5.27;;
17864;SDS011;9058;52.018;4.202;2023-02-28T08:18:59;6.77;;;6.03;;
17864;SDS011;9058;52.018;4.202;2023-02-28T08:21:25;7.07;;;6.03;;
17864;SDS011;9058;52.018;4.202;2023-02-28T08:23:52;7.13;;;6.23;;
17864;SDS011;9058;52.018;4.202;2023-02-28T08:26:20;8.67;;;6.80;;
17864;SDS011;9058;52.018;4.202;2023-02-28T08:28:46;8.87;;;7.47;;
17864;SDS011;9058;52.018;4.202;2023-02-28T08:31:13;10.03;;;7.57;;
17864;SDS011;9058;52.018;4.202;2023-02-28T08:33:40;10.10;;;8.10;;
17864;SDS011;9058;52.018;4.202;2023-02-28T08:36:07;9.63;;;6.77;;
17864;SDS011;9058;52.018;4.202;2023-02-28T08:38:33;13.80;;;9.17;;
17864;SDS011;9058;52.018;4.202;2023-02-28T08:41:00;12.20;;;9.57;;
17864;SDS011;9058;52.018;4.202;2023-02-28T08:43:28;12.53;;;9.70;;
17864;SDS011;9058;52.018;4.202;2023-02-28T08:45:55;11.60;;;9.40;;
17864;SDS011;9058;52.018;4.202;2023-02-28T08:48:21;15.60;;;10.73;;
17864;SDS011;9058;52.018;4.202;2023-02-28T08:50:54;16.27;;;12.57;;
17864;SDS011;9058;52.018;4.202;2023-02-28T08:53:20;17.10;;;10.90;;
17864;SDS011;9058;52.018;4.202;2023-02-28T08:55:47;16.10;;;12.70;;
17864;SDS011;9058;52.018;4.202;2023-02-28T08:58:21;15.47;;;11.53;;
17864;SDS011;9058;52.018;4.202;2023-02-28T09:00:48;14.70;;;12.67;;
17864;SDS011;9058;52.018;4.202;2023-02-28T09:03:15;16.90;;;12.13;;
17864;SDS011;9058;52.018;4.202;2023-02-28T09:05:42;19.40;;;13.57;;
17864;SDS011;9058;52.018;4.202;2023-02-28T09:08:17;21.73;;;14.03;;
17864;SDS011;9058;52.018;4.202;2023-02-28T09:10:43;18.67;;;13.63;;
17864;SDS011;9058;52.018;4.202;2023-02-28T09:13:10;20.47;;;13.80;;
17864;SDS011;9058;52.018;4.202;2023-02-28T09:15:37;21.37;;;13.87;;
17864;SDS011;9058;52.018;4.202;2023-02-28T09:18:05;19.77;;;15.07;;
17864;SDS011;9058;52.018;4.202;2023-02-28T09:20:31;17.83;;;12.80;;
17864;SDS011;9058;52.018;4.202;2023-02-28T09:22:57;19.57;;;13.97;;
17864;SDS011;9058;52.018;4.202;2023-02-28T09:25:24;17.33;;;12.93;;
17864;SDS011;9058;52.018;4.202;2023-02-28T09:27:50;15.93;;;12.20;;
17864;SDS011;9058;52.018;4.202;2023-02-28T09:30:17;16.20;;;10.67;;
17864;SDS011;9058;52.018;4.202;2023-02-28T09:32:43;19.53;;;12.17;;
17864;SDS011;9058;52.018;4.202;2023-02-28T09:35:18;13.20;;;9.77;;
17864;SDS011;9058;52.018;4.202;2023-02-28T09:37:46;11.57;;;8.47;;
17864;SDS011;9058;52.018;4.202;2023-02-28T09:40:12;8.90;;;7.10;;
17864;SDS011;9058;52.018;4.202;2023-02-28T09:42:39;10.07;;;8.57;;
17864;SDS011;9058;52.018;4.202;2023-02-28T09:45:06;9.60;;;6.93;;
17864;SDS011;9058;52.018;4.202;2023-02-28T09:47:38;8.87;;;6.70;;
17864;SDS011;9058;52.018;4.202;2023-02-28T09:50:06;8.27;;;6.17;;
17864;SDS011;9058;52.018;4.202;2023-02-28T09:52:36;6.80;;;6.03;;
17864;SDS011;9058;52.018;4.202;2023-02-28T09:55:08;7.00;;;5.57;;
17864;SDS011;9058;52.018;4.202;2023-02-28T09:57:38;6.20;;;5.13;;
17864;SDS011;9058;52.018;4.202;2023-02-28T10:00:06;7.23;;;5.93;;
17864;SDS011;9058;52.018;4.202;2023-02-28T10:02:40;6.00;;;5.10;;
17864;SDS011;9058;52.018;4.202;2023-02-28T10:05:08;5.00;;;4.57;;
17864;SDS011;9058;52.018;4.202;2023-02-28T10:07:43;5.83;;;4.17;;
17864;SDS011;9058;52.018;4.202;2023-02-28T10:10:15;5.80;;;3.93;;
17864;SDS011;9058;52.018;4.202;2023-02-28T10:12:44;5.63;;;4.23;;
17864;SDS011;9058;52.018;4.202;2023-02-28T10:15:13;4.27;;;3.57;;
17864;SDS011;9058;52.018;4.202;2023-02-28T10:17:40;4.77;;;3.63;;
17864;SDS011;9058;52.018;4.202;2023-02-28T10:20:09;4.10;;;3.70;;
17864;SDS011;9058;52.018;4.202;2023-02-28T10:22:38;4.80;;;3.70;;
17864;SDS011;9058;52.018;4.202;2023-02-28T10:25:15;7.07;;;3.83;;
17864;SDS011;9058;52.018;4.202;2023-02-28T10:27:42;3.93;;;3.53;;
17864;SDS011;9058;52.018;4.202;2023-02-28T10:30:09;5.43;;;3.10;;
17864;SDS011;9058;52.018;4.202;2023-02-28T10:32:38;5.03;;;2.90;;
17864;SDS011;9058;52.018;4.202;2023-02-28T10:35:07;4.97;;;3.20;;
17864;SDS011;9058;52.018;4.202;2023-02-28T10:37:37;5.20;;;2.80;;
17864;SDS011;9058;52.018;4.202;2023-02-28T10:40:04;3.33;;;2.73;;
17864;SDS011;9058;52.018;4.202;2023-02-28T10:42:32;5.17;;;2.87;;
17864;SDS011;9058;52.018;4.202;2023-02-28T10:45:04;4.50;;;2.00;;
17864;SDS011;9058;52.018;4.202;2023-02-28T10:47:31;3.47;;;2.60;;
17864;SDS011;9058;52.018;4.202;2023-02-28T10:49:59;4.50;;;2.30;;
17864;SDS011;9058;52.018;4.202;2023-02-28T10:52:33;5.23;;;2.53;;
17864;SDS011;9058;52.018;4.202;2023-02-28T10:55:18;2.40;;;2.20;;
17864;SDS011;9058;52.018;4.202;2023-02-28T10:57:47;2.53;;;2.33;;
17864;SDS011;9058;52.018;4.202;2023-02-28T11:00:14;3.50;;;1.93;;
17864;SDS011;9058;52.018;4.202;2023-02-28T11:02:42;3.07;;;2.53;;
17864;SDS011;9058;52.018;4.202;2023-02-28T11:05:22;3.00;;;2.70;;
17864;SDS011;9058;52.018;4.202;2023-02-28T11:07:51;2.30;;;2.10;;
17864;SDS011;9058;52.018;4.202;2023-02-28T11:10:18;3.33;;;2.80;;
17864;SDS011;9058;52.018;4.202;2023-02-28T11:12:47;3.10;;;2.27;;
17864;SDS011;9058;52.018;4.202;2023-02-28T11:15:19;2.87;;;2.53;;
17864;SDS011;9058;52.018;4.202;2023-02-28T11:17:52;3.57;;;2.23;;
17864;SDS011;9058;52.018;4.202;2023-02-28T11:20:22;2.60;;;2.40;;
17864;SDS011;9058;52.018;4.202;2023-02-28T11:22:49;4.40;;;2.87;;
17864;SDS011;9058;52.018;4.202;2023-02-28T11:25:19;2.53;;;1.93;;
17864;SDS011;9058;52.018;4.202;2023-02-28T11:27:49;2.53;;;2.20;;
17864;SDS011;9058;52.018;4.202;2023-02-28T11:30:27;2.40;;;2.20;;
17864;SDS011;9058;52.018;4.202;2023-02-28T11:32:54;2.30;;;1.70;;
17864;SDS011;9058;52.018;4.202;2023-02-28T11:35:21;2.30;;;2.10;;
17864;SDS011;9058;52.018;4.202;2023-02-28T11:37:49;2.20;;;2.00;;
17864;SDS011;9058;52.018;4.202;2023-02-28T11:40:16;2.47;;;2.07;;
17864;SDS011;9058;52.018;4.202;2023-02-28T11:42:46;4.47;;;2.60;;
17864;SDS011;9058;52.018;4.202;2023-02-28T11:45:21;2.30;;;2.08;;
17864;SDS011;9058;52.018;4.202;2023-02-28T11:47:51;3.30;;;2.42;;
17864;SDS011;9058;52.018;4.202;2023-02-28T11:50:27;2.22;;;2.03;;
17864;SDS011;9058;52.018;4.202;2023-02-28T11:53:00;1.88;;;1.77;;
17864;SDS011;9058;52.018;4.202;2023-02-28T11:55:27;2.97;;;2.28;;
17864;SDS011;9058;52.018;4.202;2023-02-28T11:58:02;2.58;;;2.38;;
17864;SDS011;9058;52.018;4.202;2023-02-28T12:00:38;2.97;;;2.30;;
17864;SDS011;9058;52.018;4.202;2023-02-28T12:03:09;5.30;;;2.22;;
17864;SDS011;9058;52.018;4.202;2023-02-28T12:05:42;2.35;;;2.15;;
17864;SDS011;9058;52.018;4.202;2023-02-28T12:08:15;3.22;;;1.95;;
17864;SDS011;9058;52.018;4.202;2023-02-28T12:10:51;2.15;;;1.95;;
17864;SDS011;9058;52.018;4.202;2023-02-28T12:13:20;2.85;;;2.28;;
17864;SDS011;9058;52.018;4.202;2023-02-28T12:16:00;2.05;;;1.88;;
17864;SDS011;9058;52.018;4.202;2023-02-28T12:18:42;2.38;;;2.15;;
17864;SDS011;9058;52.018;4.202;2023-02-28T12:21:15;2.22;;;2.05;;
17864;SDS011;9058;52.018;4.202;2023-02-28T12:23:47;3.00;;;2.45;;
17864;SDS011;9058;52.018;4.202;2023-02-28T12:26:19;4.43;;;2.22;;
17864;SDS011;9058;52.018;4.202;2023-02-28T12:28:51;2.75;;;2.55;;
17864;SDS011;9058;52.018;4.202;2023-02-28T12:31:23;3.53;;;2.55;;
17864;SDS011;9058;52.018;4.202;2023-02-28T12:33:51;2.72;;;2.30;;
17864;SDS011;9058;52.018;4.202;2023-02-28T12:36:19;3.47;;;2.30;;
17864;SDS011;9058;52.018;4.202;2023-02-28T12:38:47;2.63;;;2.20;;
17864;SDS011;9058;52.018;4.202;2023-02-28T12:41:16;2.08;;;1.88;;
17864;SDS011;9058;52.018;4.202;2023-02-28T12:43:44;1.77;;;1.67;;
17864;SDS011;9058;52.018;4.202;2023-02-28T12:46:12;2.08;;;1.98;;
17864;SDS011;9058;52.018;4.202;2023-02-28T12:48:44;2.85;;;2.13;;
17864;SDS011;9058;52.018;4.202;2023-02-28T12:51:12;1.95;;;1.85;;
17864;SDS011;9058;52.018;4.202;2023-02-28T12:53:43;4.32;;;2.00;;
17864;SDS011;9058;52.018;4.202;2023-02-28T12:56:13;2.08;;;1.70;;
17864;SDS011;9058;52.018;4.202;2023-02-28T12:58:44;2.08;;;1.90;;
17864;SDS011;9058;52.018;4.202;2023-02-28T13:01:17;2.13;;;1.90;;
17864;SDS011;9058;52.018;4.202;2023-02-28T13:04:07;1.75;;;1.65;;
17864;SDS011;9058;52.018;4.202;2023-02-28T13:06:41;5.43;;;1.83;;
17864;SDS011;9058;52.018;4.202;2023-02-28T13:09:11;1.85;;;1.75;;
17864;SDS011;9058;52.018;4.202;2023-02-28T13:11:40;1.73;;;1.63;;
17864;SDS011;9058;52.018;4.202;2023-02-28T13:14:16;2.17;;;1.98;;
17864;SDS011;9058;52.018;4.202;2023-02-28T13:16:54;4.18;;;1.98;;
17864;SDS011;9058;52.018;4.202;2023-02-28T13:19:22;3.67;;;2.08;;
17864;SDS011;9058;52.018;4.202;2023-02-28T13:21:50;2.47;;;1.83;;
17864;SDS011;9058;52.018;4.202;2023-02-28T13:29:53;2.13;;;1.95;;
17864;SDS011;9058;52.018;4.202;2023-02-28T13:32:31;2.55;;;1.98;;
17864;SDS011;9058;52.018;4.202;2023-02-28T13:35:13;2.22;;;2.03;;
17864;SDS011;9058;52.018;4.202;2023-02-28T13:37:41;2.70;;;2.03;;
17864;SDS011;9058;52.018;4.202;2023-02-28T13:40:27;2.33;;;1.75;;
17864;SDS011;9058;52.018;4.202;2023-02-28T13:42:54;2.28;;;1.80;;
17864;SDS011;9058;52.018;4.202;2023-02-28T13:45:22;2.78;;;2.58;;
17864;SDS011;9058;52.018;4.202;2023-02-28T13:47:51;2.17;;;2.05;;
17864;SDS011;9058;52.018;4.202;2023-02-28T13:50:22;2.63;;;2.00;;
17864;SDS011;9058;52.018;4.202;2023-02-28T13:52:52;2.50;;;1.90;;
17864;SDS011;9058;52.018;4.202;2023-02-28T13:55:24;3.08;;;1.58;;
17864;SDS011;9058;52.018;4.202;2023-02-28T13:57:56;3.20;;;2.03;;
17864;SDS011;9058;52.018;4.202;2023-02-28T14:00:31;2.08;;;1.85;;
17864;SDS011;9058;52.018;4.202;2023-02-28T14:03:06;1.88;;;1.63;;
17864;SDS011;9058;52.018;4.202;2023-02-28T14:05:37;2.47;;;1.92;;
17864;SDS011;9058;52.018;4.202;2023-02-28T14:08:05;3.75;;;2.00;;
17864;SDS011;9058;52.018;4.202;2023-02-28T14:10:34;2.33;;;1.75;;
17864;SDS011;9058;52.018;4.202;2023-02-28T14:13:10;1.83;;;1.73;;
17864;SDS011;9058;52.018;4.202;2023-02-28T14:15:39;2.45;;;2.22;;
17864;SDS011;9058;52.018;4.202;2023-02-28T14:18:11;2.40;;;2.03;;
17864;SDS011;9058;52.018;4.202;2023-02-28T14:20:42;4.85;;;2.50;;
17864;SDS011;9058;52.018;4.202;2023-02-28T14:23:10;2.20;;;2.05;;
17864;SDS011;9058;52.018;4.202;2023-02-28T14:25:39;2.97;;;1.70;;
17864;SDS011;9058;52.018;4.202;2023-02-28T14:28:12;1.70;;;1.60;;
17864;SDS011;9058;52.018;4.202;2023-02-28T14:30:42;1.95;;;1.75;;
17864;SDS011;9058;52.018;4.202;2023-02-28T14:33:14;3.00;;;1.80;;
17864;SDS011;9058;52.018;4.202;2023-02-28T14:35:49;1.98;;;1.77;;
17864;SDS011;9058;52.018;4.202;2023-02-28T14:38:19;2.70;;;1.92;;
17864;SDS011;9058;52.018;4.202;2023-02-28T14:40:46;2.60;;;2.20;;
17864;SDS011;9058;52.018;4.202;2023-02-28T14:43:18;2.33;;;2.13;;
17864;SDS011;9058;52.018;4.202;2023-02-28T14:45:47;2.20;;;2.00;;
17864;SDS011;9058;52.018;4.202;2023-02-28T14:48:15;3.25;;;2.65;;
17864;SDS011;9058;52.018;4.202;2023-02-28T14:50:42;2.90;;;2.65;;
17864;SDS011;9058;52.018;4.202;2023-02-28T14:53:17;2.22;;;2.03;;
17864;SDS011;9058;52.018;4.202;2023-02-28T14:55:44;2.33;;;2.13;;
17864;SDS011;9058;52.018;4.202;2023-02-28T14:58:20;3.33;;;2.08;;
17864;SDS011;9058;52.018;4.202;2023-02-28T15:00:47;2.38;;;1.98;;
17864;SDS011;9058;52.018;4.202;2023-02-28T15:03:18;2.42;;;2.22;;
17864;SDS011;9058;52.018;4.202;2023-02-28T15:05:50;1.90;;;1.77;;
17864;SDS011;9058;52.018;4.202;2023-02-28T15:08:18;3.33;;;2.50;;
17864;SDS011;9058;52.018;4.202;2023-02-28T15:10:50;2.67;;;2.40;;
17864;SDS011;9058;52.018;4.202;2023-02-28T15:13:18;3.85;;;2.10;;
17864;SDS011;9058;52.018;4.202;2023-02-28T15:15:45;3.33;;;2.00;;